x

South Hatteras - 225 South Of Cape Hatteras (41002) Wave Buoy

3:50am - Sat 30th May 2015 All times are EDT. -4 hours from GMT.

  • Sig Wave height 6.2ft
  • Swell Direction
  • Peak Period 9s
  • Average Period 6s
  • Wind
    13mph, 16mph gusts
  • Sea Temp 74°f
  • Air Temp 74°f
  • Sea Pressure 1020.6mb
  • South Hatteras - 225 South Of Cape Hatteras
  • South Hatteras - 225 South Of Cape Hatteras

More Historic Weather Station data

Upgrade to MSW Pro to gain access to the past 30 days of data for over 8000 Wavebouys and Weather Stations around the globe.

Join Pro

Comparision Forecast

View Surf forecast
   
Sat 05/30 3:50am 6ft 9s 6s 13 16 mph 1020.6mb 74f 74f
2:50am 6ft 9s 6s 16 18 mph 1021mb 74f 74f
1:50am 6ft 9s 6s 16 18 mph 1021.1mb 74f 74f
12:50am 6ft 9s 6s 18 20 mph 1021.8mb 74f 74f
Fri 05/29 11:50pm 5.5ft 9s 6s 18 20 mph 1022.1mb 75f 74f
10:50pm 6ft 9s 6s 18 20 mph 1022.4mb 75f 75f
9:50pm 6ft 9s 6s 18 20 mph 1022.1mb 75f 75f
8:50pm 6ft 9s 6s 16 20 mph 1021.9mb 75f 75f
7:50pm 6ft 9s 6s 16 18 mph 1021.7mb 75f 75f
5:50pm 5.5ft 9s 6s 13 16 mph 1021.4mb 75f 76f
4:50pm 5.5ft 8s 6s 16 20 mph 1021.4mb 75f 75f
3:50pm 5.5ft 9s 6s 18 20 mph 1021.8mb 75f 75f
2:50pm 6ft 9s 6s 16 20 mph 1022.1mb 75f 75f
1:50pm 6ft 9s 6s 18 22 mph 1022.5mb 75f 75f
12:50pm 6ft 9s 6s 18 22 mph 1022.7mb 74f 75f
11:50am 5.5ft 8s 5s 18 22 mph 1022.9mb 74f 75f
10:50am 5.5ft 9s 5s 18 22 mph 1022.7mb 74f 75f
9:50am 5ft 8s 5s 18 22 mph 1022.1mb 74f 75f
8:50am 5ft 8s 6s 18 20 mph 1021.8mb 74f 75f
7:50am 5ft 9s  -  18 22 mph 1021.5mb 74f 75f
6:50am 5ft 7s 6s 16 18 mph 1021.1mb 74f 75f
5:50am 5ft 8s 6s 16 20 mph 1020.6mb 74f 74f
4:50am 5ft 10s 6s 16 20 mph 1020.8mb 74f 74f
3:50am 5ft 8s 6s 13 16 mph 1020.9mb 74f 74f
2:50am 5.5ft 9s 6s 13 16 mph 1021.3mb 74f 74f
1:50am 5ft 9s 6s 11 16 mph 1021.8mb 74f 75f
12:50am 6ft 9s 6s 13 18 mph 1022.1mb 74f 74f
Thu 05/28 11:50pm 5.5ft 10s 6s 16 18 mph 1022.4mb 74f 74f
10:50pm 6ft 8s 6s 16 18 mph 1022.5mb 74f 74f
9:50pm 6ft 9s 6s 16 18 mph 1022.3mb 74f 74f
8:50pm 6.5ft 10s 7s 16 18 mph 1021.9mb 74f 74f
7:50pm 6ft 9s 6s 16 18 mph 1021.6mb 74f 74f
6:50pm 5.5ft 9s 6s 16 20 mph 1021.4mb 75f 74f
5:50pm 5.5ft 9s 6s 16 18 mph 1021.5mb 75f 74f
4:50pm 5.5ft 8s 6s 16 20 mph 1021.7mb 74f 74f
3:50pm 6ft 8s 6s 18 20 mph 1022mb 74f 74f
2:50pm 5ft 8s 6s 18 20 mph 1022.4mb 74f 74f
1:50pm 5ft 8s 6s 16 18 mph 1023mb 74f 74f
12:50pm 5ft 8s 6s 16 18 mph 1023.3mb 74f 74f
11:50am 5ft 8s 6s 13 16 mph 1023.7mb 74f 74f
10:50am 5ft 8s 6s 13 18 mph 1023.7mb 74f 74f
9:50am 5ft 8s 6s 13 18 mph 1023.4mb 74f 73f
8:50am 5ft 8s 6s 13 18 mph 1023.7mb 74f 73f
7:50am 5ft 8s 6s 13 16 mph 1023.5mb 74f 74f
6:50am 5ft 8s 6s 13 16 mph 1023.4mb 74f 73f
5:50am 4.5ft 8s 6s 11 13 mph 1023.1mb 74f 73f
4:50am 5ft 8s 6s 11 13 mph 1022.9mb 74f 73f
3:50am 5ft 8s 6s 11 13 mph 1022.9mb 74f 73f
2:50am 4.5ft 8s 5s 13 18 mph 1023mb 74f 73f
1:50am 4.5ft 8s 6s 16 18 mph 1023.3mb 74f 73f
12:50am 4.5ft 8s 5s 9 13 mph 1023.8mb 74f 73f
Wed 05/27 11:50pm 4.5ft 7s  -  11 13 mph 1024.2mb 74f 73f
10:50pm 4.5ft 8s 6s 11 16 mph 1024.4mb 74f 73f
9:50pm 4.5ft 8s 5s 13 18 mph 1023.8mb 74f 73f
8:50pm 4.5ft 8s 6s 11 13 mph 1023.8mb 74f 73f
7:50pm 4.5ft 8s 6s 13 18 mph 1023.9mb 75f 74f
6:50pm 4.5ft 8s 6s 13 18 mph 1024.1mb 75f 74f
5:50pm 4.5ft 8s 6s 13 16 mph 1024.2mb 75f 74f
4:50pm 4.5ft 8s 5s 11 13 mph 1024.5mb 75f 74f
3:50pm 4.5ft 7s 6s 11 13 mph 1024.9mb 75f 74f
2:50pm 4ft 7s 5s 11
mph
1025.5mb 75f 74f
1:50pm 4ft 7s 5s 11 13 mph 1026.3mb 75f 74f
12:50pm 4ft 7s 5s 11 13 mph 1026.4mb 75f 74f
11:50am 4ft 7s 5s 16 18 mph 1026mb 74f 73f
10:50am 3.5ft 8s 5s 13 16 mph 1025.7mb 74f 73f
9:50am 4ft 7s 6s 13 18 mph 1025.5mb 74f 73f
8:50am 3.5ft 6s 6s 9 11 mph 1026.3mb 74f 73f
7:50am 3.5ft 6s 5s 9 11 mph 1026mb 74f 73f
6:50am 4.5ft 7s 6s 7 9 mph 1025.8mb 74f 73f
5:50am 3.5ft 7s 5s 7 9 mph 1025.5mb 74f 72f
4:50am 4ft 7s 6s 7 9 mph 1025mb 74f 72f
3:50am 3.5ft 7s 5s 7 9 mph 1025.2mb 74f 72f
2:50am 4ft 7s 5s 7 9 mph 1025.3mb 74f 72f
1:50am 4ft 6s 5s 9 13 mph 1025.8mb 74f 73f
12:50am 4ft 8s 5s 11 13 mph 1026.3mb 74f 73f
Tue 05/26 11:50pm 4ft 7s 5s 13 16 mph 1026.4mb 74f 73f
10:50pm 4ft 7s 5s 13 16 mph 1026.5mb 74f 73f
9:50pm 4ft 6s 5s 16 18 mph 1026.1mb 74f 73f
8:50pm 4ft 6s 5s 16 20 mph 1025.5mb 74f 74f
7:50pm 4ft 6s 5s 16 20 mph 1025.7mb 74f 74f
6:50pm 3.5ft 7s 5s 16 18 mph 1025.8mb 75f 74f
5:50pm 3.5ft 6s 5s 13 16 mph 1026.3mb 75f 74f
4:50pm 3.5ft 7s 5s 13 16 mph 1026.4mb 75f 74f
3:50pm 3.5ft 6s 5s 13 16 mph 1026.7mb 75f 74f
2:50pm 3.5ft 6s 5s 13 16 mph 1026.9mb 75f 74f
1:50pm 3.5ft 6s 5s 11 13 mph 1027.4mb 75f 74f
12:50pm 3.5ft 6s 5s 13 16 mph 1027.5mb 75f 74f
11:50am 3.5ft 6s 5s 11 13 mph 1027.7mb 74f 74f
10:50am 3.5ft 7s 5s 11 13 mph 1027.8mb 74f 74f
9:50am 3.5ft 6s 5s 11 13 mph 1027.6mb 74f 74f